Time;durP1;ratioP1;P1;durP2;ratioP2;P2;SDS_P1;SDS_P2;PMS_P1;PMS_P2;Temp;Humidity;BMP_temperature;BMP_pressure;BME280_temperature;BME280_humidity;BME280_pressure;Samples;Min_cycle;Max_cycle;Signal;HPM_P1;HPM_P2
2022/05/12 00:02:01;;;;;;;;;2.33;0.67;;;;;21.39;47.22;101372.75;5058412;28;45416;-82
2022/05/12 00:04:28;;;;;;;;;2.67;2.67;;;;;21.35;47.57;101392.97;5058395;28;45390;-82
2022/05/12 00:06:54;;;;;;;;;3.33;2.33;;;;;21.03;47.84;101325.03;5058800;28;45410;-82
2022/05/12 00:09:20;;;;;;;;;1.67;0.67;;;;;21.29;47.76;101375.34;5060354;28;45390;-82
2022/05/12 00:11:45;;;;;;;;;0.00;0.00;;;;;21.27;47.33;101377.31;5062063;28;45758;-82
2022/05/12 00:14:11;;;;;;;;;1.00;1.00;;;;;21.05;47.73;101342.06;5040976;28;45712;-82
2022/05/12 00:16:37;;;;;;;;;1.67;1.00;;;;;21.12;47.55;101373.13;5038504;28;45502;-82
2022/05/12 00:19:02;;;;;;;;;2.00;2.00;;;;;21.20;47.90;101391.47;5043384;28;46525;-82
2022/05/12 00:21:28;;;;;;;;;1.33;1.00;;;;;21.12;47.97;101389.38;5048184;28;45372;-82
2022/05/12 00:23:59;;;;;;;;;7.00;2.67;;;;;21.07;47.76;101387.03;5051558;28;45400;-82
2022/05/12 00:26:30;;;;;;;;;1.00;1.00;;;;;21.14;48.08;101397.38;5039136;28;45564;-82
2022/05/12 00:28:57;;;;;;;;;2.00;1.00;;;;;21.08;47.70;101393.31;5052164;28;45654;-81
2022/05/12 00:31:23;;;;;;;;;2.00;1.00;;;;;20.95;48.04;101379.81;5053288;28;45404;-82
2022/05/12 00:33:49;;;;;;;;;1.00;1.00;;;;;20.83;48.10;101367.22;5063404;28;45462;-82
2022/05/12 00:36:15;;;;;;;;;4.00;2.00;;;;;21.04;47.74;101408.94;5057978;28;45812;-82
2022/05/12 00:38:40;;;;;;;;;3.00;3.00;;;;;20.89;48.41;101388.44;5065268;28;45361;-81
2022/05/12 00:41:06;;;;;;;;;5.00;3.00;;;;;21.03;48.35;101417.19;5039338;28;45543;-82
2022/05/12 00:43:31;;;;;;;;;3.00;1.67;;;;;21.03;48.22;101423.47;5073763;28;45334;-82
2022/05/12 00:45:56;;;;;;;;;2.33;2.00;;;;;20.95;48.01;101411.50;5058091;28;45513;-82
2022/05/12 00:48:22;;;;;;;;;3.00;2.00;;;;;20.94;48.23;101416.06;5057000;28;45755;-82
2022/05/12 00:50:48;;;;;;;;;3.67;1.33;;;;;21.00;47.89;101430.97;5051936;28;45820;-82
2022/05/12 00:53:15;;;;;;;;;2.00;2.00;;;;;20.80;47.86;101405.41;5070984;28;45563;-82
2022/05/12 00:55:43;;;;;;;;;2.00;1.00;;;;;20.95;47.38;101434.03;5070248;28;45592;-82
2022/05/12 00:58:16;;;;;;;;;1.67;1.67;;;;;20.90;47.43;101436.22;5052215;28;45488;-82
2022/05/12 01:00:42;;;;;;;;;2.00;2.00;;;;;20.75;47.59;101411.19;5060008;28;45406;-82
2022/05/12 01:03:13;;;;;;;;;2.67;1.33;;;;;20.43;46.83;101359.41;5056421;28;45672;-82
2022/05/12 01:05:39;;;;;;;;;2.00;2.00;;;;;20.86;46.85;101440.16;5057900;28;45333;-82
2022/05/12 01:08:09;;;;;;;;;2.33;2.33;;;;;20.42;46.75;101382.91;5057352;28;45973;-81
2022/05/12 01:10:36;;;;;;;;;2.67;2.67;;;;;20.59;47.37;101422.31;5060200;28;45429;-82
2022/05/12 01:13:02;;;;;;;;;2.00;2.00;;;;;20.54;47.42;101410.06;5065224;28;45268;-82
2022/05/12 01:15:27;;;;;;;;;4.33;3.33;;;;;20.57;47.30;101423.41;5063167;28;45347;-82
2022/05/12 01:18:22;;;;;;;;;2.00;2.00;;;;;20.62;47.36;101448.28;5057019;28;46345;-82
2022/05/12 01:20:49;;;;;;;;;3.00;3.00;;;;;20.58;47.23;101458.50;5051566;28;45457;-82
2022/05/12 01:23:24;;;;;;;;;4.33;3.67;;;;;20.52;47.38;101456.22;5044007;28;45506;-82
2022/05/12 01:25:49;;;;;;;;;5.00;3.67;;;;;20.39;47.65;101441.84;5038239;28;45521;-82
2022/05/12 01:28:15;;;;;;;;;2.00;2.00;;;;;20.32;47.70;101432.44;5047411;28;47424;-82
2022/05/12 01:30:40;;;;;;;;;2.33;2.33;;;;;20.46;47.93;101451.22;5062504;28;45425;-82
2022/05/12 01:33:06;;;;;;;;;1.00;1.00;;;;;20.41;47.69;101450.72;5059752;28;45555;-82
2022/05/12 01:35:32;;;;;;;;;3.00;3.00;;;;;20.35;47.82;101438.50;5037491;28;45500;-82
2022/05/12 01:37:58;;;;;;;;;5.00;2.00;;;;;20.45;48.08;101454.94;5036704;28;45409;-82
2022/05/12 01:40:25;;;;;;;;;3.00;2.00;;;;;20.42;48.22;101463.28;5036920;28;45495;-82
2022/05/12 01:42:51;;;;;;;;;4.00;2.67;;;;;20.37;47.98;101463.63;5037636;28;45473;-82
2022/05/12 01:45:18;;;;;;;;;2.00;1.67;;;;;20.39;48.16;101464.38;5056043;28;45299;-82
2022/05/12 01:47:44;;;;;;;;;3.00;3.00;;;;;20.25;48.23;101450.97;5055126;28;45429;-82
2022/05/12 01:50:11;;;;;;;;;1.00;1.00;;;;;20.38;47.71;101478.03;5071456;28;45433;-82
2022/05/12 01:52:39;;;;;;;;;2.67;2.67;;;;;20.37;47.21;101489.81;5052258;28;45441;-81
2022/05/12 01:55:04;;;;;;;;;0.00;0.00;;;;;20.23;47.05;101472.75;5056977;28;45362;-82
2022/05/12 01:57:30;;;;;;;;;4.00;1.33;;;;;20.22;46.19;101471.00;5058157;28;45389;-81
2022/05/12 01:59:56;;;;;;;;;0.33;0.33;;;;;20.34;45.81;101487.34;5060565;28;45421;-81
2022/05/12 02:02:23;;;;;;;;;3.33;0.00;;;;;20.30;45.54;101494.84;5052793;28;45523;-81
2022/05/12 02:04:48;;;;;;;;;1.00;1.00;;;;;20.29;45.92;101494.94;5057969;28;45541;-81
2022/05/12 02:07:15;;;;;;;;;1.00;1.00;;;;;20.13;45.76;101476.25;5046996;28;47265;-82
2022/05/12 02:09:40;;;;;;;;;0.00;0.00;;;;;20.01;45.67;101451.78;5056310;28;45373;-82
2022/05/12 02:12:06;;;;;;;;;0.00;0.00;;;;;20.07;45.65;101472.16;5024276;28;45372;-82
2022/05/12 02:14:31;;;;;;;;;1.00;1.00;;;;;20.25;45.05;101518.66;5040331;28;45592;-82
2022/05/12 02:16:57;;;;;;;;;0.00;0.00;;;;;20.20;45.06;101508.16;5074786;28;45819;-82
2022/05/12 02:19:22;;;;;;;;;2.00;0.33;;;;;20.10;44.76;101492.72;5060990;28;45394;-81
2022/05/12 02:21:47;;;;;;;;;2.67;0.00;;;;;19.99;45.21;101477.22;5056042;28;45402;-81
2022/05/12 02:24:13;;;;;;;;;1.00;0.00;;;;;20.07;44.45;101495.66;5053029;28;45407;-82
2022/05/12 02:26:38;;;;;;;;;0.67;0.00;;;;;20.16;44.16;101522.91;5055953;28;46004;-82
2022/05/12 02:29:04;;;;;;;;;0.00;0.00;;;;;20.01;44.30;101505.91;5038581;28;45465;-82
2022/05/12 02:31:30;;;;;;;;;0.67;0.67;;;;;20.12;44.39;101532.22;5035185;28;45561;-86
2022/05/12 02:33:55;;;;;;;;;0.33;0.33;;;;;19.82;44.27;101484.72;5056821;28;45676;-86
2022/05/12 02:36:21;;;;;;;;;0.00;0.00;;;;;20.07;44.85;101533.53;5050705;28;46177;-86
2022/05/12 02:38:46;;;;;;;;;2.00;0.33;;;;;20.03;45.24;101530.16;5035984;28;45345;-86
2022/05/12 02:41:12;;;;;;;;;1.00;0.00;;;;;19.77;44.95;101497.69;5036422;28;45255;-86
2022/05/12 02:43:37;;;;;;;;;0.00;0.00;;;;;19.81;45.21;101506.47;5038083;28;45569;-85
2022/05/12 02:46:06;;;;;;;;;0.33;0.33;;;;;20.01;44.94;101545.66;5053726;28;46959;-81
2022/05/12 02:48:34;;;;;;;;;1.00;1.00;;;;;19.99;44.81;101550.28;5063947;28;45620;-81
2022/05/12 02:50:59;;;;;;;;;0.00;0.00;;;;;19.73;45.37;101498.88;5075884;28;45650;-81
2022/05/12 02:53:26;;;;;;;;;2.00;2.00;;;;;19.98;45.44;101549.44;5061199;28;45236;-81
2022/05/12 02:55:51;;;;;;;;;1.00;1.00;;;;;19.99;45.76;101551.19;5043716;28;48634;-81
2022/05/12 02:58:17;;;;;;;;;0.67;0.67;;;;;19.99;45.62;101550.28;5062862;28;45825;-81
2022/05/12 03:00:42;;;;;;;;;0.67;0.67;;;;;19.97;45.63;101561.25;5041436;28;45510;-81
2022/05/12 03:03:08;;;;;;;;;1.00;0.00;;;;;19.97;45.92;101558.53;5055574;28;45672;-81
2022/05/12 03:05:36;;;;;;;;;1.00;1.00;;;;;19.95;45.57;101562.31;5058428;28;46612;-81
2022/05/12 03:08:01;;;;;;;;;3.33;1.00;;;;;19.86;46.06;101549.44;5042052;28;45507;-81
2022/05/12 03:10:27;;;;;;;;;0.33;0.33;;;;;19.88;45.61;101567.31;5057720;28;45488;-81
2022/05/12 03:12:53;;;;;;;;;1.00;0.00;;;;;19.69;46.24;101537.06;5059300;28;45742;-81
2022/05/12 03:15:19;;;;;;;;;0.00;0.00;;;;;19.73;45.77;101549.41;5055366;28;45622;-81
2022/05/12 03:17:45;;;;;;;;;1.00;1.00;;;;;19.84;45.75;101573.03;5069069;28;45462;-81
2022/05/12 03:20:14;;;;;;;;;2.33;1.00;;;;;19.81;46.04;101580.38;5056916;28;45465;-81
2022/05/12 03:22:40;;;;;;;;;0.00;0.00;;;;;19.67;46.16;101547.13;5059254;28;45616;-81
2022/05/12 03:25:09;;;;;;;;;0.67;0.33;;;;;19.62;46.14;101536.63;5040658;28;48219;-81
2022/05/12 03:27:35;;;;;;;;;0.33;0.33;;;;;19.75;46.27;101578.09;5063679;28;45382;-81
2022/05/12 03:30:00;;;;;;;;;0.33;0.33;;;;;19.53;46.48;101542.66;5079087;28;45452;-82
2022/05/12 03:32:26;;;;;;;;;1.67;1.00;;;;;19.63;46.54;101561.81;5073012;28;45569;-82
2022/05/12 03:34:51;;;;;;;;;1.00;1.00;;;;;19.65;46.61;101574.25;5078906;28;45259;-81
2022/05/12 03:37:17;;;;;;;;;2.00;2.00;;;;;19.64;46.48;101568.94;5066500;28;45314;-82
2022/05/12 03:39:44;;;;;;;;;1.00;1.00;;;;;19.45;47.01;101534.19;5062894;28;45451;-82
2022/05/12 03:42:12;;;;;;;;;1.00;1.00;;;;;19.55;46.68;101563.22;5071326;27;45325;-81
2022/05/12 03:44:47;;;;;;;;;0.00;0.00;;;;;19.39;46.91;101546.31;5070012;28;45604;-82
2022/05/12 03:47:34;;;;;;;;;1.00;1.00;;;;;19.43;46.65;101563.16;5058777;28;45383;-82
2022/05/12 03:50:03;;;;;;;;;0.00;0.00;;;;;19.39;47.34;101566.09;5078817;28;45299;-81
2022/05/12 03:52:30;;;;;;;;;1.00;1.00;;;;;19.32;47.23;101561.22;5063215;28;45521;-82
2022/05/12 03:54:56;;;;;;;;;0.00;0.00;;;;;19.24;47.25;101558.16;5058654;28;46109;-82
2022/05/12 03:57:23;;;;;;;;;1.67;1.00;;;;;19.20;47.43;101568.31;5072622;28;45430;-84
2022/05/12 03:59:49;;;;;;;;;2.67;0.00;;;;;19.15;47.60;101570.44;5059316;28;45383;-84
2022/05/12 04:02:15;;;;;;;;;1.00;1.00;;;;;19.08;47.74;101569.09;5045860;28;45705;-85
2022/05/12 04:04:43;;;;;;;;;0.00;0.00;;;;;18.96;48.03;101570.78;5072775;28;45739;-85
2022/05/12 04:07:11;;;;;;;;;0.00;0.00;;;;;18.91;48.19;101570.22;5068070;28;45576;-85
2022/05/12 04:09:37;;;;;;;;;1.00;1.00;;;;;18.87;48.22;101574.09;5065034;28;45382;-85
2022/05/12 04:12:05;;;;;;;;;3.00;1.00;;;;;18.58;48.67;101539.00;5076586;28;45600;-84
2022/05/12 04:14:30;;;;;;;;;0.00;0.00;;;;;18.65;48.80;101553.84;5078752;28;45985;-85
2022/05/12 04:16:56;;;;;;;;;0.33;0.00;;;;;18.58;48.55;101547.13;5078835;28;45385;-85
2022/05/12 04:19:21;;;;;;;;;1.00;1.00;;;;;18.75;48.67;101586.53;5069776;28;45386;-81
2022/05/12 04:21:46;;;;;;;;;1.00;1.00;;;;;18.70;48.92;101583.25;5066277;28;45327;-82
2022/05/12 04:24:12;;;;;;;;;0.33;0.33;;;;;18.68;48.83;101585.19;5058485;28;45953;-82
2022/05/12 04:26:38;;;;;;;;;1.00;1.00;;;;;18.65;48.83;101588.94;5039935;28;45292;-82
2022/05/12 04:29:04;;;;;;;;;0.00;0.00;;;;;18.69;49.18;101605.84;5058499;28;45377;-81
2022/05/12 04:31:30;;;;;;;;;2.00;2.00;;;;;18.59;49.39;101593.88;5058417;28;45396;-81
2022/05/12 04:36:40;;;;;;;;;0.00;0.00;;;;;18.59;49.18;101605.56;5059753;28;45566;-81
2022/05/12 04:39:06;;;;;;;;;0.67;0.67;;;;;18.44;49.60;101587.63;5057842;28;45578;-81
2022/05/12 04:41:32;;;;;;;;;1.00;1.00;;;;;18.58;49.37;101620.00;5074483;28;45640;-80
2022/05/12 04:43:58;;;;;;;;;0.67;0.67;;;;;18.51;49.44;101602.47;5060014;28;46436;-81
2022/05/12 04:46:24;;;;;;;;;0.33;0.33;;;;;18.46;49.71;101601.91;5077268;28;45467;-81
2022/05/12 04:48:51;;;;;;;;;2.00;2.00;;;;;18.44;49.72;101606.53;5078713;28;45427;-81
2022/05/12 04:51:17;;;;;;;;;1.67;1.00;;;;;18.42;49.56;101621.94;5064624;28;45646;-82
2022/05/12 04:53:42;;;;;;;;;4.00;2.00;;;;;18.47;49.90;101633.31;5056647;28;46283;-80
2022/05/12 04:56:08;;;;;;;;;1.00;1.00;;;;;18.30;50.16;101610.09;5054465;28;45448;-83
2022/05/12 04:58:33;;;;;;;;;1.00;1.00;;;;;18.13;49.85;101579.63;5053271;28;45508;-83
2022/05/12 05:00:58;;;;;;;;;1.67;0.00;;;;;18.38;50.35;101618.59;5061593;28;45427;-83
2022/05/12 05:03:24;;;;;;;;;2.67;1.67;;;;;18.34;50.06;101623.28;5058451;28;54399;-83
2022/05/12 05:05:50;;;;;;;;;0.00;0.00;;;;;17.97;50.29;101576.13;5045629;28;45497;-85
2022/05/12 05:08:20;;;;;;;;;1.00;1.00;;;;;18.21;50.08;101624.16;5072950;28;45440;-82
2022/05/12 05:10:46;;;;;;;;;1.00;1.00;;;;;18.25;50.47;101631.97;5048526;28;45371;-83
2022/05/12 05:13:12;;;;;;;;;1.00;1.00;;;;;17.92;50.51;101573.72;5060777;28;45269;-82
2022/05/12 05:15:37;;;;;;;;;0.67;0.67;;;;;18.24;50.68;101627.53;5060158;28;45486;-81
2022/05/12 05:18:03;;;;;;;;;1.67;1.00;;;;;17.85;50.75;101571.50;5066000;28;45251;-82
2022/05/12 05:20:30;;;;;;;;;2.00;0.67;;;;;18.12;50.62;101610.28;5042361;28;45367;-81
2022/05/12 05:22:58;;;;;;;;;0.00;0.00;;;;;18.11;50.77;101613.06;5063941;28;45903;-81
2022/05/12 05:25:24;;;;;;;;;3.33;0.00;;;;;18.01;50.78;101612.75;5066002;28;45449;-80
2022/05/12 05:27:51;;;;;;;;;2.00;1.00;;;;;18.27;50.54;101645.38;5066227;27;45468;-84
2022/05/12 05:30:21;;;;;;;;;1.67;1.67;;;;;18.23;50.55;101643.81;5067410;28;45553;-81
2022/05/12 05:32:47;;;;;;;;;4.67;3.00;;;;;18.25;50.51;101650.00;5047121;28;47105;-83
2022/05/12 05:35:13;;;;;;;;;1.00;1.00;;;;;18.19;50.64;101640.47;5064966;28;45644;-85
2022/05/12 05:37:39;;;;;;;;;2.00;2.00;;;;;17.98;50.80;101603.97;5067118;28;45590;-85
2022/05/12 05:40:05;;;;;;;;;3.67;1.00;;;;;18.33;50.42;101663.88;5060569;28;45430;-82
2022/05/12 05:42:32;;;;;;;;;4.00;3.33;;;;;18.06;50.55;101613.34;5062919;28;46552;-82
2022/05/12 05:44:57;;;;;;;;;3.00;2.00;;;;;18.17;50.97;101638.78;5046491;28;45374;-83
2022/05/12 05:47:23;;;;;;;;;3.33;1.33;;;;;17.98;50.46;101604.88;5049143;28;45192;-83
2022/05/12 05:49:48;;;;;;;;;2.67;1.00;;;;;18.41;50.64;101672.38;5065924;28;45477;-82
2022/05/12 05:54:57;;;;;;;;;1.67;1.67;;;;;18.01;50.34;101611.91;5058945;28;45498;-84
2022/05/12 05:57:25;;;;;;;;;4.00;3.00;;;;;17.91;50.61;101595.38;5043619;28;45385;-84
2022/05/12 05:59:57;;;;;;;;;5.00;2.33;;;;;18.23;50.32;101654.59;5043095;28;45448;-84
2022/05/12 06:02:22;;;;;;;;;4.67;3.00;;;;;18.48;50.00;101703.44;5058755;28;45674;-86
2022/05/12 06:04:48;;;;;;;;;3.00;3.00;;;;;18.03;49.94;101634.25;5042197;28;45347;-83
2022/05/12 06:07:14;;;;;;;;;3.00;2.00;;;;;18.35;51.12;101684.44;5044019;28;45570;-82
2022/05/12 06:09:41;;;;;;;;;2.00;1.00;;;;;18.62;50.75;101710.69;5056192;28;45449;-86
2022/05/12 06:12:09;;;;;;;;;4.00;4.00;;;;;18.69;52.40;101713.88;5038633;28;46033;-86
2022/05/12 06:14:35;;;;;;;;;3.00;1.00;;;;;18.67;50.69;101699.59;5058693;28;45420;-83
2022/05/12 06:17:00;;;;;;;;;7.33;3.67;;;;;18.62;51.64;101694.47;5070779;28;45538;-83
2022/05/12 06:19:26;;;;;;;;;0.67;0.00;;;;;18.54;50.20;101678.75;5067836;28;45264;-85
2022/05/12 06:21:52;;;;;;;;;4.67;2.00;;;;;18.53;49.97;101671.59;5046983;28;47990;-85
2022/05/12 06:24:18;;;;;;;;;1.33;1.00;;;;;18.56;49.78;101686.75;5062466;27;45380;-88
2022/05/12 06:26:43;;;;;;;;;1.00;1.00;;;;;18.68;49.34;101709.41;5065431;28;45512;-85
2022/05/12 06:29:08;;;;;;;;;6.33;2.33;;;;;18.57;49.83;101710.09;5050391;28;45488;-86
2022/05/12 06:31:34;;;;;;;;;6.67;5.67;;;;;18.50;49.84;101706.91;5056596;28;45679;-89
2022/05/12 06:33:59;;;;;;;;;2.33;2.00;;;;;18.28;49.88;101674.09;5045352;28;45418;-88
2022/05/12 06:36:27;;;;;;;;;1.33;0.00;;;;;18.61;49.88;101727.81;5048016;28;45405;-86
2022/05/12 06:38:52;;;;;;;;;2.00;2.00;;;;;18.01;50.82;101631.66;5064176;28;46462;-88
2022/05/12 06:41:18;;;;;;;;;1.00;1.00;;;;;18.28;50.08;101666.00;5042143;28;48312;-87
2022/05/12 06:43:46;;;;;;;;;4.33;2.33;;;;;18.41;49.98;101691.28;5069169;28;45528;-85
2022/05/12 06:46:16;;;;;;;;;3.00;2.00;;;;;18.76;50.88;101743.13;5065471;28;46016;-83
2022/05/12 06:48:52;;;;;;;;;2.67;1.00;;;;;18.52;49.54;101686.09;5043738;28;45516;-85
2022/05/12 06:51:18;;;;;;;;;5.33;2.33;;;;;18.97;49.31;101745.44;5057875;28;45493;-86
2022/05/12 06:53:45;;;;;;;;;2.00;2.00;;;;;18.51;49.48;101651.06;5062971;28;45524;-84
2022/05/12 06:56:11;;;;;;;;;3.00;2.33;;;;;19.09;50.75;101741.09;5045567;28;45455;-84
2022/05/12 06:58:37;;;;;;;;;2.67;1.00;;;;;19.01;47.96;101713.69;5060242;28;45830;-87
2022/05/12 07:01:04;;;;;;;;;15.33;13.00;;;;;18.81;48.67;101723.94;5058840;28;45485;-86
2022/05/12 07:03:30;;;;;;;;;7.33;7.00;;;;;18.65;49.99;101739.31;5040821;28;45421;-85
2022/05/12 07:05:57;;;;;;;;;7.33;5.00;;;;;18.49;50.29;101693.50;5044245;28;45433;-90
2022/05/12 07:08:23;;;;;;;;;5.67;4.00;;;;;18.91;48.92;101746.69;5047894;28;45401;-89
2022/05/12 07:10:48;;;;;;;;;5.67;5.00;;;;;18.76;50.81;101716.09;5049215;28;46935;-87
2022/05/12 07:13:19;;;;;;;;;2.33;2.33;;;;;19.16;48.86;101750.56;5053851;28;45505;-88
2022/05/12 07:15:55;;;;;;;;;2.33;2.33;;;;;18.69;47.91;101666.13;5062363;28;45428;-89
2022/05/12 07:18:23;;;;;;;;;2.33;2.33;;;;;19.10;48.08;101730.16;5042678;28;45652;-89
2022/05/12 07:29:00;;;;;;;;;2.00;2.00;;;;;19.25;47.78;101713.97;5059899;28;45607;-88
2022/05/12 07:31:26;;;;;;;;;2.00;2.00;;;;;19.08;46.63;101669.97;5056790;28;46437;-88
2022/05/12 07:33:51;;;;;;;;;3.67;3.00;;;;;19.36;46.11;101700.59;5057676;28;45405;-86
2022/05/12 07:36:20;;;;;;;;;2.00;2.00;;;;;19.56;46.22;101720.94;5065288;28;45454;-85
2022/05/12 07:38:47;;;;;;;;;2.00;2.00;;;;;19.59;46.19;101721.56;5061452;28;45593;-89
2022/05/12 07:41:13;;;;;;;;;2.00;2.00;;;;;19.78;45.99;101723.09;5043619;28;47472;-89
2022/05/12 07:43:39;;;;;;;;;1.00;1.00;;;;;19.92;44.73;101747.38;5066158;28;45241;-89
2022/05/12 07:46:06;;;;;;;;;2.33;1.00;;;;;19.59;44.48;101693.66;5033913;28;45683;-88
2022/05/12 07:48:32;;;;;;;;;1.00;1.00;;;;;19.34;44.24;101668.28;5059804;28;45618;-86
2022/05/12 07:50:58;;;;;;;;;2.00;2.00;;;;;19.48;44.04;101710.63;5042871;28;47126;-89
2022/05/12 07:53:23;;;;;;;;;1.00;1.00;;;;;19.48;44.95;101701.63;5056851;28;45466;-90
2022/05/12 07:55:49;;;;;;;;;1.33;1.33;;;;;19.68;43.54;101714.72;5041244;28;45800;-89
2022/05/12 07:58:15;;;;;;;;;2.00;2.00;;;;;19.96;43.10;101745.34;5041261;28;45391;-86
2022/05/12 08:00:41;;;;;;;;;3.33;1.67;;;;;19.86;43.40;101719.91;5065316;27;45446;-87
2022/05/12 08:03:06;;;;;;;;;2.00;1.00;;;;;19.81;42.30;101696.72;5059772;28;45461;-86
2022/05/12 08:05:32;;;;;;;;;1.00;1.00;;;;;20.14;41.41;101722.44;5066696;28;45446;-87
2022/05/12 08:07:57;;;;;;;;;0.00;0.00;;;;;20.23;44.54;101729.94;5048187;28;45544;-86
2022/05/12 08:10:23;;;;;;;;;0.00;0.00;;;;;19.95;43.43;101648.91;5051178;28;46093;-86
2022/05/12 08:12:49;;;;;;;;;1.00;1.00;;;;;20.28;41.69;101678.19;5055268;28;45695;-85
2022/05/12 08:15:15;;;;;;;;;1.33;1.33;;;;;20.67;43.10;101727.84;5055415;28;45487;-86
2022/05/12 08:17:40;;;;;;;;;0.00;0.00;;;;;20.78;43.36;101738.78;5058985;28;45524;-87
2022/05/12 08:20:07;;;;;;;;;1.33;0.00;;;;;20.76;41.69;101729.03;5060239;28;45464;-86
2022/05/12 08:22:33;;;;;;;;;1.00;1.00;;;;;20.89;39.15;101727.19;5065562;28;45731;-83
2022/05/12 08:24:59;;;;;;;;;2.67;0.00;;;;;21.02;39.44;101732.59;5058044;28;45779;-89
2022/05/12 08:27:25;;;;;;;;;0.67;0.67;;;;;21.28;38.95;101771.34;5071258;28;45564;-88
2022/05/12 08:29:51;;;;;;;;;1.00;1.00;;;;;21.03;38.97;101723.50;5055655;28;47184;-88
2022/05/12 08:32:16;;;;;;;;;0.67;0.67;;;;;21.05;39.04;101706.13;5045304;28;46070;-89
2022/05/12 08:34:41;;;;;;;;;1.00;0.00;;;;;21.12;38.24;101705.66;5063145;28;45409;-89
2022/05/12 08:37:09;;;;;;;;;1.33;1.00;;;;;21.12;38.11;101679.44;5042662;28;45675;-89
2022/05/12 08:39:34;;;;;;;;;0.33;0.00;;;;;21.45;38.30;101714.09;5057280;28;46225;-89
2022/05/12 08:42:10;;;;;;;;;3.00;1.67;;;;;21.74;38.03;101686.59;5042632;28;45823;-89
2022/05/12 08:44:39;;;;;;;;;0.33;0.33;;;;;22.08;37.03;101638.72;5061958;28;45790;-88
2022/05/12 08:47:10;;;;;;;;;2.00;2.00;;;;;22.95;37.64;101684.41;5062186;28;45761;-88
2022/05/12 08:49:41;;;;;;;;;1.33;0.00;;;;;24.30;37.04;101756.69;5048500;28;48413;-89
2022/05/12 08:52:10;;;;;;;;;3.00;2.33;;;;;25.16;34.90;101754.66;5045554;28;45691;-89
2022/05/12 08:54:38;;;;;;;;;2.00;1.00;;;;;25.69;34.74;101721.63;5065851;28;45871;-88
2022/05/12 08:57:06;;;;;;;;;3.00;1.67;;;;;26.69;33.10;101742.31;5047080;28;45528;-86
2022/05/12 08:59:33;;;;;;;;;1.00;1.00;;;;;27.37;31.15;101739.38;5054577;28;45637;-84
2022/05/12 09:05:33;;;;;;;;;4.67;3.33;;;;;28.05;30.60;101722.47;5066821;28;45413;-93
2022/05/12 09:08:18;;;;;;;;;3.00;3.00;;;;;28.08;29.61;101666.47;5042308;28;45611;-94
2022/05/12 09:10:53;;;;;;;;;2.67;1.33;;;;;28.58;29.45;101727.00;5041677;28;48183;-94
2022/05/12 09:13:30;;;;;;;;;4.00;2.00;;;;;27.74;28.98;101558.41;5060156;28;45259;-89
2022/05/12 09:16:03;;;;;;;;;0.33;0.33;;;;;27.88;28.00;101562.50;5040624;28;45370;-89
2022/05/12 09:18:33;;;;;;;;;4.00;3.00;;;;;28.59;27.92;101695.81;5043138;28;45342;-89
2022/05/12 09:21:06;;;;;;;;;1.00;1.00;;;;;29.03;28.31;101736.88;5049715;28;47413;-88
2022/05/12 09:23:32;;;;;;;;;0.00;0.00;;;;;29.19;27.54;101736.09;5048761;28;45395;-89
2022/05/12 09:25:58;;;;;;;;;1.00;1.00;;;;;29.09;27.15;101738.13;5040209;28;45380;-89
2022/05/12 09:28:40;;;;;;;;;0.33;0.00;;;;;29.85;26.62;101736.31;5070414;27;45440;-91
2022/05/12 09:31:08;;;;;;;;;1.00;1.00;;;;;30.06;25.73;101731.22;5060314;28;46200;-88
2022/05/12 09:33:36;;;;;;;;;1.33;1.00;;;;;29.84;26.54;101732.72;5053851;28;45520;-88
2022/05/12 09:36:46;;;;;;;;;1.25;1.25;;;;;28.54;26.50;101620.50;5042465;28;45388;-87
2022/05/12 09:39:37;;;;;;;;;1.00;1.00;;;;;28.44;27.10;101647.16;5038260;28;45518;-91
2022/05/12 09:42:06;;;;;;;;;0.33;0.00;;;;;29.09;27.08;101738.13;5046189;28;47238;-88
2022/05/12 09:44:35;;;;;;;;;1.67;1.67;;;;;29.03;27.06;101697.56;5071842;28;45443;-92
2022/05/12 09:47:11;;;;;;;;;0.75;0.75;;;;;29.56;26.73;101723.03;5043965;28;45555;-89
2022/05/12 09:49:40;;;;;;;;;2.00;1.00;;;;;29.70;25.74;101663.84;5062349;28;45590;-91
2022/05/12 09:52:36;;;;;;;;;1.00;1.00;;;;;30.05;26.66;101729.47;5064558;28;45606;-93
2022/05/12 09:55:21;;;;;;;;;0.33;0.33;;;;;30.45;25.21;101700.25;5061742;28;45560;-84
2022/05/12 09:57:52;;;;;;;;;0.00;0.00;;;;;30.90;25.37;101703.44;5059928;28;45501;-85
2022/05/12 10:00:27;;;;;;;;;2.00;0.00;;;;;31.00;25.31;101719.75;5049765;28;45631;-87
2022/05/12 10:09:18;;;;;;;;;2.00;2.00;;;;;32.90;23.37;101647.25;5047222;28;45468;-86
2022/05/12 10:12:01;;;;;;;;;2.00;1.00;;;;;34.44;21.30;101699.50;5034824;28;45482;-86
2022/05/12 10:14:42;;;;;;;;;1.00;1.00;;;;;34.83;20.79;101696.16;5068477;28;45443;-87
2022/05/12 10:17:19;;;;;;;;;1.00;1.00;;;;;34.88;21.01;101699.19;5058896;28;45492;-81
2022/05/12 10:19:47;;;;;;;;;2.33;2.00;;;;;35.56;21.42;101692.84;5055549;28;45410;-81
2022/05/12 10:22:22;;;;;;;;;2.00;0.67;;;;;35.60;19.70;101658.09;5056218;28;45370;-81
2022/05/12 10:25:18;;;;;;;;;0.00;0.00;;;;;35.57;19.08;101682.63;5039598;28;46613;-82
2022/05/12 10:28:09;;;;;;;;;0.00;0.00;;;;;35.61;19.24;101689.50;5060634;28;45552;-82
2022/05/12 10:30:38;;;;;;;;;0.25;0.25;;;;;36.78;17.92;101681.59;5036640;28;45432;-83
2022/05/12 10:33:29;;;;;;;;;0.00;0.00;;;;;36.49;18.73;101690.19;5049256;28;45615;-83
2022/05/12 10:36:42;;;;;;;;;0.00;0.00;;;;;37.57;17.69;101688.78;5056185;28;45861;-83
2022/05/12 10:39:15;;;;;;;;;1.00;1.00;;;;;36.41;18.50;101692.31;5040586;28;45403;-83
2022/05/12 10:42:08;;;;;;;;;1.67;0.67;;;;;36.77;18.25;101700.19;5055809;28;45318;-82
2022/05/12 10:45:02;;;;;;;;;0.33;0.33;;;;;34.03;20.65;101698.31;5035176;28;45545;-81
2022/05/12 10:47:51;;;;;;;;;2.00;0.33;;;;;32.41;21.76;101682.84;5055539;28;45581;-83
2022/05/12 10:50:22;;;;;;;;;1.00;1.00;;;;;33.69;20.72;101693.50;4995709;28;45583;-84
2022/05/12 10:53:06;;;;;;;;;1.33;1.00;;;;;34.79;19.46;101689.31;4997932;28;45482;-86
2022/05/12 10:55:44;;;;;;;;;1.00;0.00;;;;;35.59;18.95;101608.38;4994597;28;45617;-82
2022/05/12 10:58:29;;;;;;;;;1.67;0.67;;;;;37.16;18.13;101682.56;4983179;28;45819;-82
2022/05/12 11:00:55;;;;;;;;;0.00;0.00;;;;;36.05;18.82;101683.34;4997294;28;45597;-83
2022/05/12 11:03:24;;;;;;;;;1.00;1.00;;;;;37.53;17.52;101665.22;4999928;28;45621;-86
2022/05/12 11:05:59;;;;;;;;;1.00;1.00;;;;;38.87;16.62;101635.13;4991432;28;45437;-87
2022/05/12 11:08:38;;;;;;;;;0.00;0.00;;;;;38.47;16.83;101687.66;4992900;28;46648;-82
2022/05/12 11:11:15;;;;;;;;;0.00;0.00;;;;;36.65;18.24;101660.28;4996021;28;45567;-85
2022/05/12 11:13:59;;;;;;;;;0.67;0.67;;;;;34.97;19.63;101663.84;4995979;28;45601;-85
2022/05/12 11:16:30;;;;;;;;;1.67;0.67;;;;;33.86;20.07;101671.97;4994825;28;45442;-91
2022/05/12 11:19:12;;;;;;;;;0.00;0.00;;;;;33.35;20.79;101699.69;4991332;28;48484;-88
2022/05/12 11:22:01;;;;;;;;;0.67;0.00;;;;;32.65;22.10;101654.97;5006394;28;45419;-89
2022/05/12 11:24:53;;;;;;;;;1.00;1.00;;;;;32.26;21.91;101658.81;4993690;28;46454;-83
2022/05/12 11:27:23;;;;;;;;;0.00;0.00;;;;;31.70;22.08;101626.06;5020100;28;45602;-85
2022/05/12 11:30:16;;;;;;;;;0.33;0.33;;;;;31.84;22.57;101692.44;5057938;28;45625;-89
2022/05/12 11:33:02;;;;;;;;;1.33;0.33;;;;;31.69;22.95;101686.88;5044912;28;45475;-88
2022/05/12 11:35:34;;;;;;;;;0.00;0.00;;;;;31.62;23.01;101688.66;5072478;28;45490;-88
2022/05/12 11:38:06;;;;;;;;;0.00;0.00;;;;;31.51;23.15;101684.41;5064488;28;45537;-88
2022/05/12 11:40:44;;;;;;;;;1.00;1.00;;;;;31.20;23.26;101687.13;5044254;28;47306;-90
2022/05/12 11:46:56;;;;;;;;;0.33;0.00;;;;;30.18;24.02;101689.59;5059872;28;45402;-91
2022/05/12 11:49:50;;;;;;;;;0.00;0.00;;;;;29.82;24.39;101682.56;5049918;28;45524;-89
2022/05/12 11:52:16;;;;;;;;;1.00;1.00;;;;;29.72;24.81;101694.75;5049674;28;48329;-89
2022/05/12 11:54:59;;;;;;;;;0.00;0.00;;;;;29.10;24.94;101637.41;5044028;28;45915;-83
2022/05/12 11:57:29;;;;;;;;;4.00;1.33;;;;;29.23;25.31;101685.31;5043831;28;45499;-82
2022/05/12 12:00:08;;;;;;;;;1.00;1.00;;;;;29.15;25.68;101689.91;5040856;28;45512;-82
2022/05/12 12:02:33;;;;;;;;;1.00;1.00;;;;;29.11;25.77;101694.91;5061444;28;46075;-81